sensor_id;sensor_type;location;lat;lon;timestamp;P1;durP1;ratioP1;P2;durP2;ratioP2
16800;SDS011;8518;53.236;10.384;2022-09-09T00:00:19;18.20;;;15.67;;
16800;SDS011;8518;53.236;10.384;2022-09-09T00:03:00;17.37;;;15.10;;
16800;SDS011;8518;53.236;10.384;2022-09-09T00:05:44;17.17;;;15.37;;
16800;SDS011;8518;53.236;10.384;2022-09-09T00:08:14;17.20;;;15.23;;
16800;SDS011;8518;53.236;10.384;2022-09-09T00:10:45;16.90;;;15.10;;
16800;SDS011;8518;53.236;10.384;2022-09-09T00:13:22;16.80;;;14.10;;
16800;SDS011;8518;53.236;10.384;2022-09-09T00:16:12;18.57;;;15.80;;
16800;SDS011;8518;53.236;10.384;2022-09-09T00:21:13;18.87;;;16.13;;
16800;SDS011;8518;53.236;10.384;2022-09-09T00:23:44;17.27;;;15.47;;
16800;SDS011;8518;53.236;10.384;2022-09-09T00:31:37;17.47;;;15.57;;
16800;SDS011;8518;53.236;10.384;2022-09-09T00:34:24;18.57;;;15.13;;
16800;SDS011;8518;53.236;10.384;2022-09-09T00:36:51;17.03;;;15.13;;
16800;SDS011;8518;53.236;10.384;2022-09-09T00:39:37;16.63;;;14.13;;
16800;SDS011;8518;53.236;10.384;2022-09-09T00:42:26;17.57;;;15.07;;
16800;SDS011;8518;53.236;10.384;2022-09-09T00:45:17;17.70;;;15.17;;
16800;SDS011;8518;53.236;10.384;2022-09-09T00:47:51;16.90;;;15.10;;
16800;SDS011;8518;53.236;10.384;2022-09-09T00:58:13;18.57;;;15.43;;
16800;SDS011;8518;53.236;10.384;2022-09-09T01:00:43;17.63;;;15.73;;
16800;SDS011;8518;53.236;10.384;2022-09-09T01:05:54;19.77;;;15.43;;
16800;SDS011;8518;53.236;10.384;2022-09-09T01:11:26;19.67;;;15.43;;
16800;SDS011;8518;53.236;10.384;2022-09-09T01:14:20;19.67;;;16.17;;
16800;SDS011;8518;53.236;10.384;2022-09-09T01:17:11;19.07;;;15.27;;
16800;SDS011;8518;53.236;10.384;2022-09-09T01:27:41;19.53;;;15.63;;
16800;SDS011;8518;53.236;10.384;2022-09-09T01:30:10;31.50;;;15.17;;
16800;SDS011;8518;53.236;10.384;2022-09-09T01:37:52;17.23;;;14.90;;
16800;SDS011;8518;53.236;10.384;2022-09-09T01:40:18;21.93;;;15.17;;
16800;SDS011;8518;53.236;10.384;2022-09-09T01:42:44;19.73;;;15.47;;
16800;SDS011;8518;53.236;10.384;2022-09-09T01:45:10;17.93;;;15.47;;
16800;SDS011;8518;53.236;10.384;2022-09-09T01:47:36;19.37;;;16.03;;
16800;SDS011;8518;53.236;10.384;2022-09-09T01:50:02;17.47;;;15.07;;
16800;SDS011;8518;53.236;10.384;2022-09-09T01:52:28;16.67;;;14.77;;
16800;SDS011;8518;53.236;10.384;2022-09-09T01:54:55;20.20;;;16.07;;
16800;SDS011;8518;53.236;10.384;2022-09-09T01:57:23;18.47;;;15.50;;
16800;SDS011;8518;53.236;10.384;2022-09-09T02:00:09;18.27;;;16.03;;
16800;SDS011;8518;53.236;10.384;2022-09-09T02:05:36;20.07;;;15.67;;
16800;SDS011;8518;53.236;10.384;2022-09-09T02:08:15;18.50;;;15.63;;
16800;SDS011;8518;53.236;10.384;2022-09-09T02:11:08;18.83;;;16.53;;
16800;SDS011;8518;53.236;10.384;2022-09-09T02:13:39;21.20;;;16.27;;
16800;SDS011;8518;53.236;10.384;2022-09-09T02:16:13;17.73;;;15.33;;
16800;SDS011;8518;53.236;10.384;2022-09-09T02:18:54;17.83;;;14.87;;
16800;SDS011;8518;53.236;10.384;2022-09-09T02:21:21;18.43;;;15.40;;
16800;SDS011;8518;53.236;10.384;2022-09-09T02:23:48;18.70;;;16.27;;
16800;SDS011;8518;53.236;10.384;2022-09-09T02:26:17;20.53;;;15.87;;
16800;SDS011;8518;53.236;10.384;2022-09-09T02:28:46;17.33;;;14.90;;
16800;SDS011;8518;53.236;10.384;2022-09-09T02:31:15;18.37;;;15.67;;
16800;SDS011;8518;53.236;10.384;2022-09-09T02:33:45;17.20;;;14.80;;
16800;SDS011;8518;53.236;10.384;2022-09-09T02:36:17;21.93;;;16.10;;
16800;SDS011;8518;53.236;10.384;2022-09-09T02:38:46;19.40;;;15.70;;
16800;SDS011;8518;53.236;10.384;2022-09-09T02:41:17;17.47;;;14.87;;
16800;SDS011;8518;53.236;10.384;2022-09-09T02:43:49;17.33;;;14.23;;
16800;SDS011;8518;53.236;10.384;2022-09-09T02:46:34;18.73;;;14.27;;
16800;SDS011;8518;53.236;10.384;2022-09-09T02:52:15;15.93;;;13.97;;
16800;SDS011;8518;53.236;10.384;2022-09-09T02:54:45;16.83;;;14.97;;
16800;SDS011;8518;53.236;10.384;2022-09-09T02:57:16;16.87;;;15.07;;
16800;SDS011;8518;53.236;10.384;2022-09-09T02:59:50;16.33;;;13.03;;
16800;SDS011;8518;53.236;10.384;2022-09-09T03:02:17;16.27;;;13.97;;
16800;SDS011;8518;53.236;10.384;2022-09-09T03:04:43;17.67;;;15.77;;
16800;SDS011;8518;53.236;10.384;2022-09-09T03:07:15;17.13;;;13.90;;
16800;SDS011;8518;53.236;10.384;2022-09-09T03:09:42;15.23;;;13.60;;
16800;SDS011;8518;53.236;10.384;2022-09-09T03:12:08;17.50;;;13.47;;
16800;SDS011;8518;53.236;10.384;2022-09-09T03:14:36;16.37;;;13.83;;
16800;SDS011;8518;53.236;10.384;2022-09-09T03:17:03;18.83;;;13.80;;
16800;SDS011;8518;53.236;10.384;2022-09-09T03:19:29;14.63;;;12.30;;
16800;SDS011;8518;53.236;10.384;2022-09-09T03:21:55;15.90;;;13.47;;
16800;SDS011;8518;53.236;10.384;2022-09-09T03:24:21;15.50;;;12.13;;
16800;SDS011;8518;53.236;10.384;2022-09-09T03:26:47;14.00;;;12.40;;
16800;SDS011;8518;53.236;10.384;2022-09-09T03:29:13;14.10;;;12.53;;
16800;SDS011;8518;53.236;10.384;2022-09-09T03:31:40;15.23;;;12.83;;
16800;SDS011;8518;53.236;10.384;2022-09-09T03:34:05;14.70;;;11.70;;
16800;SDS011;8518;53.236;10.384;2022-09-09T03:36:32;13.03;;;11.73;;
16800;SDS011;8518;53.236;10.384;2022-09-09T03:38:57;13.90;;;11.87;;
16800;SDS011;8518;53.236;10.384;2022-09-09T03:41:24;13.30;;;12.00;;
16800;SDS011;8518;53.236;10.384;2022-09-09T03:43:51;16.50;;;12.50;;
16800;SDS011;8518;53.236;10.384;2022-09-09T03:46:17;12.90;;;11.50;;
16800;SDS011;8518;53.236;10.384;2022-09-09T03:48:47;13.67;;;12.00;;
16800;SDS011;8518;53.236;10.384;2022-09-09T03:51:13;14.37;;;11.53;;
16800;SDS011;8518;53.236;10.384;2022-09-09T03:53:40;13.20;;;11.30;;
16800;SDS011;8518;53.236;10.384;2022-09-09T03:56:06;13.00;;;11.70;;
16800;SDS011;8518;53.236;10.384;2022-09-09T03:58:36;13.57;;;11.73;;
16800;SDS011;8518;53.236;10.384;2022-09-09T04:01:06;12.43;;;11.13;;
16800;SDS011;8518;53.236;10.384;2022-09-09T04:03:34;13.83;;;11.50;;
16800;SDS011;8518;53.236;10.384;2022-09-09T04:06:00;12.67;;;10.70;;
16800;SDS011;8518;53.236;10.384;2022-09-09T04:08:28;13.33;;;10.83;;
16800;SDS011;8518;53.236;10.384;2022-09-09T04:10:58;12.60;;;10.60;;
16800;SDS011;8518;53.236;10.384;2022-09-09T04:13:25;11.67;;;10.23;;
16800;SDS011;8518;53.236;10.384;2022-09-09T04:15:55;10.83;;;9.73;;
16800;SDS011;8518;53.236;10.384;2022-09-09T04:18:22;13.93;;;10.07;;
16800;SDS011;8518;53.236;10.384;2022-09-09T04:20:50;13.07;;;10.60;;
16800;SDS011;8518;53.236;10.384;2022-09-09T04:23:16;11.30;;;10.10;;
16800;SDS011;8518;53.236;10.384;2022-09-09T04:25:46;12.60;;;9.73;;
16800;SDS011;8518;53.236;10.384;2022-09-09T04:28:13;11.10;;;9.60;;
16800;SDS011;8518;53.236;10.384;2022-09-09T04:30:40;10.30;;;9.20;;
16800;SDS011;8518;53.236;10.384;2022-09-09T04:33:07;10.73;;;9.43;;
16800;SDS011;8518;53.236;10.384;2022-09-09T04:35:33;10.07;;;9.07;;
16800;SDS011;8518;53.236;10.384;2022-09-09T04:37:58;9.87;;;8.80;;
16800;SDS011;8518;53.236;10.384;2022-09-09T04:40:24;9.80;;;8.90;;
16800;SDS011;8518;53.236;10.384;2022-09-09T04:42:50;8.70;;;7.90;;
16800;SDS011;8518;53.236;10.384;2022-09-09T04:45:16;10.00;;;8.73;;
16800;SDS011;8518;53.236;10.384;2022-09-09T04:47:43;9.77;;;8.43;;
16800;SDS011;8518;53.236;10.384;2022-09-09T04:50:09;8.60;;;7.83;;
16800;SDS011;8518;53.236;10.384;2022-09-09T04:52:35;9.53;;;8.30;;
16800;SDS011;8518;53.236;10.384;2022-09-09T04:55:00;8.50;;;7.67;;
16800;SDS011;8518;53.236;10.384;2022-09-09T04:57:27;9.63;;;7.60;;
16800;SDS011;8518;53.236;10.384;2022-09-09T04:59:53;8.30;;;7.43;;
16800;SDS011;8518;53.236;10.384;2022-09-09T05:02:19;8.47;;;7.33;;
16800;SDS011;8518;53.236;10.384;2022-09-09T05:04:45;8.57;;;7.03;;
16800;SDS011;8518;53.236;10.384;2022-09-09T05:07:10;9.40;;;7.80;;
16800;SDS011;8518;53.236;10.384;2022-09-09T05:09:36;7.57;;;6.77;;
16800;SDS011;8518;53.236;10.384;2022-09-09T05:12:01;7.57;;;6.63;;
16800;SDS011;8518;53.236;10.384;2022-09-09T05:14:28;6.97;;;6.20;;
16800;SDS011;8518;53.236;10.384;2022-09-09T05:16:55;6.67;;;5.97;;
16800;SDS011;8518;53.236;10.384;2022-09-09T05:19:21;7.30;;;6.23;;
16800;SDS011;8518;53.236;10.384;2022-09-09T05:21:46;6.77;;;6.17;;
16800;SDS011;8518;53.236;10.384;2022-09-09T05:24:12;6.43;;;5.63;;
16800;SDS011;8518;53.236;10.384;2022-09-09T05:26:38;7.43;;;6.40;;
16800;SDS011;8518;53.236;10.384;2022-09-09T05:29:04;6.87;;;6.27;;
16800;SDS011;8518;53.236;10.384;2022-09-09T05:31:30;7.07;;;5.70;;
16800;SDS011;8518;53.236;10.384;2022-09-09T05:33:55;6.20;;;5.60;;
16800;SDS011;8518;53.236;10.384;2022-09-09T05:36:21;6.63;;;5.60;;
16800;SDS011;8518;53.236;10.384;2022-09-09T05:38:48;6.90;;;5.90;;
16800;SDS011;8518;53.236;10.384;2022-09-09T05:41:15;6.73;;;5.53;;
16800;SDS011;8518;53.236;10.384;2022-09-09T05:43:41;6.53;;;5.87;;
16800;SDS011;8518;53.236;10.384;2022-09-09T05:46:13;6.27;;;5.37;;
16800;SDS011;8518;53.236;10.384;2022-09-09T05:48:44;6.70;;;5.07;;
16800;SDS011;8518;53.236;10.384;2022-09-09T05:51:16;4.83;;;4.43;;
16800;SDS011;8518;53.236;10.384;2022-09-09T05:53:44;5.00;;;4.50;;
16800;SDS011;8518;53.236;10.384;2022-09-09T05:56:11;6.77;;;4.30;;
16800;SDS011;8518;53.236;10.384;2022-09-09T05:58:50;4.87;;;4.20;;
16800;SDS011;8518;53.236;10.384;2022-09-09T06:01:17;5.40;;;4.00;;
16800;SDS011;8518;53.236;10.384;2022-09-09T06:03:48;4.00;;;3.60;;
16800;SDS011;8518;53.236;10.384;2022-09-09T06:06:18;7.03;;;4.00;;
16800;SDS011;8518;53.236;10.384;2022-09-09T06:08:46;4.20;;;3.43;;
16800;SDS011;8518;53.236;10.384;2022-09-09T06:11:14;4.97;;;3.43;;
16800;SDS011;8518;53.236;10.384;2022-09-09T06:13:40;4.70;;;3.20;;
16800;SDS011;8518;53.236;10.384;2022-09-09T06:16:10;5.57;;;3.70;;
16800;SDS011;8518;53.236;10.384;2022-09-09T06:18:37;5.27;;;3.03;;
16800;SDS011;8518;53.236;10.384;2022-09-09T06:21:04;5.30;;;2.97;;
16800;SDS011;8518;53.236;10.384;2022-09-09T06:23:32;5.87;;;3.07;;
16800;SDS011;8518;53.236;10.384;2022-09-09T06:26:10;3.87;;;2.93;;
16800;SDS011;8518;53.236;10.384;2022-09-09T06:28:37;3.67;;;2.50;;
16800;SDS011;8518;53.236;10.384;2022-09-09T06:31:07;4.73;;;2.70;;
16800;SDS011;8518;53.236;10.384;2022-09-09T06:33:35;2.70;;;2.50;;
16800;SDS011;8518;53.236;10.384;2022-09-09T06:36:06;5.27;;;2.67;;
16800;SDS011;8518;53.236;10.384;2022-09-09T06:38:35;4.63;;;2.67;;
16800;SDS011;8518;53.236;10.384;2022-09-09T06:41:00;4.33;;;2.80;;
16800;SDS011;8518;53.236;10.384;2022-09-09T06:43:31;3.47;;;3.10;;
16800;SDS011;8518;53.236;10.384;2022-09-09T06:46:00;4.20;;;2.53;;
16800;SDS011;8518;53.236;10.384;2022-09-09T06:48:46;4.00;;;3.00;;
16800;SDS011;8518;53.236;10.384;2022-09-09T06:51:19;3.73;;;2.30;;
16800;SDS011;8518;53.236;10.384;2022-09-09T06:53:52;3.17;;;2.20;;
16800;SDS011;8518;53.236;10.384;2022-09-09T06:56:26;3.53;;;1.97;;
16800;SDS011;8518;53.236;10.384;2022-09-09T06:58:58;2.63;;;2.00;;
16800;SDS011;8518;53.236;10.384;2022-09-09T07:01:26;2.60;;;1.80;;
16800;SDS011;8518;53.236;10.384;2022-09-09T07:03:56;1.73;;;1.63;;
16800;SDS011;8518;53.236;10.384;2022-09-09T07:06:27;2.03;;;1.43;;
16800;SDS011;8518;53.236;10.384;2022-09-09T07:08:59;2.77;;;1.70;;
16800;SDS011;8518;53.236;10.384;2022-09-09T07:11:27;3.37;;;1.63;;
16800;SDS011;8518;53.236;10.384;2022-09-09T07:13:54;4.33;;;2.00;;
16800;SDS011;8518;53.236;10.384;2022-09-09T07:16:22;4.10;;;1.53;;
16800;SDS011;8518;53.236;10.384;2022-09-09T07:18:52;2.87;;;1.80;;
16800;SDS011;8518;53.236;10.384;2022-09-09T07:21:20;3.80;;;1.60;;
16800;SDS011;8518;53.236;10.384;2022-09-09T07:23:46;2.97;;;1.50;;
16800;SDS011;8518;53.236;10.384;2022-09-09T07:26:13;3.63;;;1.60;;
16800;SDS011;8518;53.236;10.384;2022-09-09T07:28:41;2.53;;;1.67;;
16800;SDS011;8518;53.236;10.384;2022-09-09T07:31:12;2.90;;;1.40;;
16800;SDS011;8518;53.236;10.384;2022-09-09T07:33:42;1.95;;;1.15;;
16800;SDS011;8518;53.236;10.384;2022-09-09T07:36:15;3.47;;;1.53;;
16800;SDS011;8518;53.236;10.384;2022-09-09T07:38:50;3.70;;;1.57;;
16800;SDS011;8518;53.236;10.384;2022-09-09T07:41:18;4.30;;;1.20;;
16800;SDS011;8518;53.236;10.384;2022-09-09T07:43:52;3.60;;;1.35;;
16800;SDS011;8518;53.236;10.384;2022-09-09T07:46:21;3.92;;;1.05;;
16800;SDS011;8518;53.236;10.384;2022-09-09T07:49:01;2.33;;;0.88;;
16800;SDS011;8518;53.236;10.384;2022-09-09T07:51:45;2.15;;;1.20;;
16800;SDS011;8518;53.236;10.384;2022-09-09T07:54:19;2.13;;;1.20;;
16800;SDS011;8518;53.236;10.384;2022-09-09T07:56:48;1.90;;;1.00;;
16800;SDS011;8518;53.236;10.384;2022-09-09T07:59:17;3.47;;;1.33;;
16800;SDS011;8518;53.236;10.384;2022-09-09T08:01:48;3.05;;;1.10;;
16800;SDS011;8518;53.236;10.384;2022-09-09T08:04:21;2.08;;;1.20;;
16800;SDS011;8518;53.236;10.384;2022-09-09T08:06:49;4.32;;;1.13;;
16800;SDS011;8518;53.236;10.384;2022-09-09T08:09:20;3.70;;;1.42;;
16800;SDS011;8518;53.236;10.384;2022-09-09T08:11:54;3.70;;;1.00;;
16800;SDS011;8518;53.236;10.384;2022-09-09T08:14:21;1.83;;;1.27;;
16800;SDS011;8518;53.236;10.384;2022-09-09T08:16:48;2.47;;;1.17;;
16800;SDS011;8518;53.236;10.384;2022-09-09T08:19:15;1.55;;;0.90;;
16800;SDS011;8518;53.236;10.384;2022-09-09T08:21:41;2.80;;;1.17;;
16800;SDS011;8518;53.236;10.384;2022-09-09T08:24:08;2.70;;;1.10;;
16800;SDS011;8518;53.236;10.384;2022-09-09T08:26:45;1.95;;;1.27;;
16800;SDS011;8518;53.236;10.384;2022-09-09T08:29:14;3.05;;;1.48;;
16800;SDS011;8518;53.236;10.384;2022-09-09T08:34:12;1.67;;;1.30;;
16800;SDS011;8518;53.236;10.384;2022-09-09T08:36:38;2.55;;;1.30;;
16800;SDS011;8518;53.236;10.384;2022-09-09T08:39:07;3.97;;;1.30;;
16800;SDS011;8518;53.236;10.384;2022-09-09T08:52:28;2.33;;;1.30;;
16800;SDS011;8518;53.236;10.384;2022-09-09T08:54:56;2.38;;;1.33;;
16800;SDS011;8518;53.236;10.384;2022-09-09T08:57:44;1.88;;;1.40;;
16800;SDS011;8518;53.236;10.384;2022-09-09T09:00:11;2.88;;;1.30;;
16800;SDS011;8518;53.236;10.384;2022-09-09T09:10:46;1.98;;;0.98;;
16800;SDS011;8518;53.236;10.384;2022-09-09T09:13:26;1.83;;;0.70;;
16800;SDS011;8518;53.236;10.384;2022-09-09T09:19:07;5.22;;;0.85;;
16800;SDS011;8518;53.236;10.384;2022-09-09T09:26:49;2.25;;;0.90;;
16800;SDS011;8518;53.236;10.384;2022-09-09T09:29:16;3.13;;;1.00;;
16800;SDS011;8518;53.236;10.384;2022-09-09T09:31:53;2.72;;;1.02;;
16800;SDS011;8518;53.236;10.384;2022-09-09T09:34:24;4.13;;;1.00;;
16800;SDS011;8518;53.236;10.384;2022-09-09T09:36:53;6.35;;;1.40;;
16800;SDS011;8518;53.236;10.384;2022-09-09T09:39:22;2.60;;;1.13;;
16800;SDS011;8518;53.236;10.384;2022-09-09T09:41:53;3.05;;;1.20;;
16800;SDS011;8518;53.236;10.384;2022-09-09T09:44:29;2.97;;;1.20;;
16800;SDS011;8518;53.236;10.384;2022-09-09T09:49:33;2.50;;;0.88;;
16800;SDS011;8518;53.236;10.384;2022-09-09T09:52:00;1.88;;;0.90;;
16800;SDS011;8518;53.236;10.384;2022-09-09T09:54:28;1.98;;;0.73;;
16800;SDS011;8518;53.236;10.384;2022-09-09T09:56:56;1.98;;;0.80;;
16800;SDS011;8518;53.236;10.384;2022-09-09T09:59:33;3.45;;;0.93;;
16800;SDS011;8518;53.236;10.384;2022-09-09T10:02:36;2.70;;;1.17;;
16800;SDS011;8518;53.236;10.384;2022-09-09T10:05:16;2.33;;;0.85;;
16800;SDS011;8518;53.236;10.384;2022-09-09T10:07:45;2.28;;;1.00;;
16800;SDS011;8518;53.236;10.384;2022-09-09T10:10:20;3.70;;;1.10;;
16800;SDS011;8518;53.236;10.384;2022-09-09T10:12:56;2.63;;;1.00;;
16800;SDS011;8518;53.236;10.384;2022-09-09T10:15:35;1.50;;;0.98;;
16800;SDS011;8518;53.236;10.384;2022-09-09T10:21:35;3.08;;;0.90;;
16800;SDS011;8518;53.236;10.384;2022-09-09T10:40:48;1.35;;;0.82;;
16800;SDS011;8518;53.236;10.384;2022-09-09T10:46:20;1.17;;;0.73;;
16800;SDS011;8518;53.236;10.384;2022-09-09T10:54:42;1.58;;;0.88;;
16800;SDS011;8518;53.236;10.384;2022-09-09T10:57:23;3.05;;;0.70;;
16800;SDS011;8518;53.236;10.384;2022-09-09T10:59:55;3.05;;;0.77;;
16800;SDS011;8518;53.236;10.384;2022-09-09T11:02:28;2.20;;;0.60;;
16800;SDS011;8518;53.236;10.384;2022-09-09T11:05:08;3.60;;;0.90;;
16800;SDS011;8518;53.236;10.384;2022-09-09T11:10:51;1.95;;;0.60;;
16800;SDS011;8518;53.236;10.384;2022-09-09T11:13:40;1.33;;;0.77;;
16800;SDS011;8518;53.236;10.384;2022-09-09T11:21:49;2.45;;;0.77;;
16800;SDS011;8518;53.236;10.384;2022-09-09T11:24:22;3.15;;;0.95;;
16800;SDS011;8518;53.236;10.384;2022-09-09T11:32:30;3.55;;;1.05;;
16800;SDS011;8518;53.236;10.384;2022-09-09T11:35:29;2.40;;;0.95;;
16800;SDS011;8518;53.236;10.384;2022-09-09T11:38:06;2.05;;;0.75;;
16800;SDS011;8518;53.236;10.384;2022-09-09T11:40:42;2.08;;;0.90;;
16800;SDS011;8518;53.236;10.384;2022-09-09T11:45:52;4.75;;;2.03;;
16800;SDS011;8518;53.236;10.384;2022-09-09T11:48:36;3.20;;;1.13;;
16800;SDS011;8518;53.236;10.384;2022-09-09T11:53:32;3.67;;;1.15;;
16800;SDS011;8518;53.236;10.384;2022-09-09T11:56:45;2.10;;;1.20;;
16800;SDS011;8518;53.236;10.384;2022-09-09T11:59:21;2.50;;;1.20;;
16800;SDS011;8518;53.236;10.384;2022-09-09T12:01:58;2.53;;;1.20;;
16800;SDS011;8518;53.236;10.384;2022-09-09T12:07:51;3.53;;;1.15;;
16800;SDS011;8518;53.236;10.384;2022-09-09T12:13:07;2.15;;;1.27;;
16800;SDS011;8518;53.236;10.384;2022-09-09T12:15:51;2.70;;;1.35;;
16800;SDS011;8518;53.236;10.384;2022-09-09T12:18:23;3.97;;;1.58;;
16800;SDS011;8518;53.236;10.384;2022-09-09T12:21:14;3.17;;;1.00;;
16800;SDS011;8518;53.236;10.384;2022-09-09T12:24:08;1.42;;;1.10;;
16800;SDS011;8518;53.236;10.384;2022-09-09T12:26:47;1.58;;;1.15;;
16800;SDS011;8518;53.236;10.384;2022-09-09T12:39:56;2.47;;;1.30;;
16800;SDS011;8518;53.236;10.384;2022-09-09T12:42:23;3.95;;;1.33;;
16800;SDS011;8518;53.236;10.384;2022-09-09T12:44:54;1.67;;;1.17;;
16800;SDS011;8518;53.236;10.384;2022-09-09T12:47:41;3.17;;;1.30;;
16800;SDS011;8518;53.236;10.384;2022-09-09T12:50:18;2.03;;;1.08;;
16800;SDS011;8518;53.236;10.384;2022-09-09T12:52:48;2.60;;;1.23;;
16800;SDS011;8518;53.236;10.384;2022-09-09T12:55:16;1.42;;;1.10;;
16800;SDS011;8518;53.236;10.384;2022-09-09T12:57:46;1.45;;;0.85;;
16800;SDS011;8518;53.236;10.384;2022-09-09T13:00:23;2.55;;;0.73;;
16800;SDS011;8518;53.236;10.384;2022-09-09T13:02:57;2.05;;;0.90;;
16800;SDS011;8518;53.236;10.384;2022-09-09T13:05:34;1.70;;;0.80;;
16800;SDS011;8518;53.236;10.384;2022-09-09T13:08:06;1.52;;;0.80;;
16800;SDS011;8518;53.236;10.384;2022-09-09T13:10:46;2.65;;;0.90;;
16800;SDS011;8518;53.236;10.384;2022-09-09T13:13:23;2.33;;;0.80;;
16800;SDS011;8518;53.236;10.384;2022-09-09T13:16:00;1.95;;;0.80;;
16800;SDS011;8518;53.236;10.384;2022-09-09T13:18:27;1.83;;;0.85;;
16800;SDS011;8518;53.236;10.384;2022-09-09T13:20:55;3.70;;;1.00;;
16800;SDS011;8518;53.236;10.384;2022-09-09T13:23:26;3.00;;;1.30;;
16800;SDS011;8518;53.236;10.384;2022-09-09T13:26:04;3.65;;;1.40;;
16800;SDS011;8518;53.236;10.384;2022-09-09T13:28:51;2.53;;;1.13;;
16800;SDS011;8518;53.236;10.384;2022-09-09T13:31:30;3.38;;;1.13;;
16800;SDS011;8518;53.236;10.384;2022-09-09T13:34:10;3.00;;;1.13;;
16800;SDS011;8518;53.236;10.384;2022-09-09T13:37:01;1.83;;;0.85;;
16800;SDS011;8518;53.236;10.384;2022-09-09T13:39:28;4.05;;;1.30;;
16800;SDS011;8518;53.236;10.384;2022-09-09T13:41:54;2.38;;;1.08;;
16800;SDS011;8518;53.236;10.384;2022-09-09T13:44:21;1.70;;;1.15;;
16800;SDS011;8518;53.236;10.384;2022-09-09T13:47:03;2.28;;;1.20;;
16800;SDS011;8518;53.236;10.384;2022-09-09T13:49:31;2.97;;;1.20;;
16800;SDS011;8518;53.236;10.384;2022-09-09T13:52:05;3.97;;;1.65;;
16800;SDS011;8518;53.236;10.384;2022-09-09T13:54:36;5.50;;;1.88;;
16800;SDS011;8518;53.236;10.384;2022-09-09T13:57:02;2.95;;;1.67;;
16800;SDS011;8518;53.236;10.384;2022-09-09T13:59:29;4.43;;;1.70;;
16800;SDS011;8518;53.236;10.384;2022-09-09T14:01:55;2.28;;;1.08;;
16800;SDS011;8518;53.236;10.384;2022-09-09T14:04:21;1.08;;;0.77;;
16800;SDS011;8518;53.236;10.384;2022-09-09T14:06:47;3.00;;;1.05;;
16800;SDS011;8518;53.236;10.384;2022-09-09T14:09:13;1.23;;;0.70;;
16800;SDS011;8518;53.236;10.384;2022-09-09T14:11:41;1.13;;;0.60;;
16800;SDS011;8518;53.236;10.384;2022-09-09T14:14:07;4.72;;;0.70;;
16800;SDS011;8518;53.236;10.384;2022-09-09T14:16:36;2.47;;;0.63;;
16800;SDS011;8518;53.236;10.384;2022-09-09T14:19:02;1.23;;;0.70;;
16800;SDS011;8518;53.236;10.384;2022-09-09T14:21:28;1.40;;;0.77;;
16800;SDS011;8518;53.236;10.384;2022-09-09T14:23:57;2.55;;;0.68;;
16800;SDS011;8518;53.236;10.384;2022-09-09T14:26:23;2.03;;;0.52;;
16800;SDS011;8518;53.236;10.384;2022-09-09T14:28:50;0.85;;;0.47;;
16800;SDS011;8518;53.236;10.384;2022-09-09T14:31:16;2.45;;;0.60;;
16800;SDS011;8518;53.236;10.384;2022-09-09T14:33:44;2.30;;;0.50;;
16800;SDS011;8518;53.236;10.384;2022-09-09T14:36:12;1.23;;;0.52;;
16800;SDS011;8518;53.236;10.384;2022-09-09T14:38:38;2.58;;;0.85;;
16800;SDS011;8518;53.236;10.384;2022-09-09T14:41:11;3.25;;;0.60;;
16800;SDS011;8518;53.236;10.384;2022-09-09T14:43:39;0.80;;;0.40;;
16800;SDS011;8518;53.236;10.384;2022-09-09T14:46:06;2.00;;;0.47;;
16800;SDS011;8518;53.236;10.384;2022-09-09T14:48:33;2.80;;;0.65;;
16800;SDS011;8518;53.236;10.384;2022-09-09T14:51:16;2.78;;;0.57;;
16800;SDS011;8518;53.236;10.384;2022-09-09T14:53:45;3.35;;;0.88;;
16800;SDS011;8518;53.236;10.384;2022-09-09T14:56:17;4.07;;;0.63;;
16800;SDS011;8518;53.236;10.384;2022-09-09T14:58:48;2.25;;;0.70;;
16800;SDS011;8518;53.236;10.384;2022-09-09T15:01:15;2.03;;;0.60;;
16800;SDS011;8518;53.236;10.384;2022-09-09T15:03:47;2.95;;;0.73;;
16800;SDS011;8518;53.236;10.384;2022-09-09T15:06:21;2.13;;;0.80;;
16800;SDS011;8518;53.236;10.384;2022-09-09T15:08:49;2.00;;;0.60;;
16800;SDS011;8518;53.236;10.384;2022-09-09T15:11:16;1.63;;;0.70;;
16800;SDS011;8518;53.236;10.384;2022-09-09T15:13:42;2.55;;;0.70;;
16800;SDS011;8518;53.236;10.384;2022-09-09T15:18:35;3.08;;;0.70;;
16800;SDS011;8518;53.236;10.384;2022-09-09T15:21:02;4.28;;;1.10;;
16800;SDS011;8518;53.236;10.384;2022-09-09T15:23:32;1.75;;;0.80;;
16800;SDS011;8518;53.236;10.384;2022-09-09T15:25:58;1.95;;;0.88;;
16800;SDS011;8518;53.236;10.384;2022-09-09T15:28:24;1.70;;;1.10;;
16800;SDS011;8518;53.236;10.384;2022-09-09T15:30:50;1.52;;;0.90;;
16800;SDS011;8518;53.236;10.384;2022-09-09T15:33:21;1.40;;;0.80;;
16800;SDS011;8518;53.236;10.384;2022-09-09T15:35:47;2.45;;;1.10;;
16800;SDS011;8518;53.236;10.384;2022-09-09T15:38:13;2.08;;;1.00;;
16800;SDS011;8518;53.236;10.384;2022-09-09T15:40:40;1.98;;;1.00;;
16800;SDS011;8518;53.236;10.384;2022-09-09T15:43:06;2.47;;;1.10;;
16800;SDS011;8518;53.236;10.384;2022-09-09T15:45:32;3.50;;;1.20;;
16800;SDS011;8518;53.236;10.384;2022-09-09T15:47:59;2.08;;;1.15;;
16800;SDS011;8518;53.236;10.384;2022-09-09T15:50:26;3.92;;;1.08;;
16800;SDS011;8518;53.236;10.384;2022-09-09T15:52:51;3.13;;;1.10;;
16800;SDS011;8518;53.236;10.384;2022-09-09T15:55:18;1.73;;;1.13;;
16800;SDS011;8518;53.236;10.384;2022-09-09T15:57:52;2.42;;;1.27;;
16800;SDS011;8518;53.236;10.384;2022-09-09T16:00:18;2.13;;;1.10;;
16800;SDS011;8518;53.236;10.384;2022-09-09T16:02:46;1.50;;;0.88;;
16800;SDS011;8518;53.236;10.384;2022-09-09T16:05:12;3.28;;;1.25;;
16800;SDS011;8518;53.236;10.384;2022-09-09T16:07:38;2.67;;;1.15;;
16800;SDS011;8518;53.236;10.384;2022-09-09T16:10:04;3.65;;;1.63;;
16800;SDS011;8518;53.236;10.384;2022-09-09T16:12:30;3.30;;;1.23;;
16800;SDS011;8518;53.236;10.384;2022-09-09T16:14:56;1.55;;;1.02;;
16800;SDS011;8518;53.236;10.384;2022-09-09T16:17:24;3.85;;;1.20;;
16800;SDS011;8518;53.236;10.384;2022-09-09T16:19:50;1.85;;;1.00;;
16800;SDS011;8518;53.236;10.384;2022-09-09T16:22:15;7.25;;;1.60;;
16800;SDS011;8518;53.236;10.384;2022-09-09T16:24:42;1.50;;;0.93;;
16800;SDS011;8518;53.236;10.384;2022-09-09T16:27:13;2.10;;;1.20;;
16800;SDS011;8518;53.236;10.384;2022-09-09T16:29:39;2.67;;;1.40;;
16800;SDS011;8518;53.236;10.384;2022-09-09T16:32:04;2.55;;;1.00;;
16800;SDS011;8518;53.236;10.384;2022-09-09T16:34:33;2.30;;;1.30;;
16800;SDS011;8518;53.236;10.384;2022-09-09T16:36:58;1.52;;;0.95;;
16800;SDS011;8518;53.236;10.384;2022-09-09T16:39:24;2.60;;;1.50;;
16800;SDS011;8518;53.236;10.384;2022-09-09T16:41:50;2.53;;;1.42;;
16800;SDS011;8518;53.236;10.384;2022-09-09T16:44:17;2.10;;;1.20;;
16800;SDS011;8518;53.236;10.384;2022-09-09T16:46:44;1.88;;;0.98;;
16800;SDS011;8518;53.236;10.384;2022-09-09T16:49:13;4.38;;;1.30;;
16800;SDS011;8518;53.236;10.384;2022-09-09T16:51:45;1.60;;;0.90;;
16800;SDS011;8518;53.236;10.384;2022-09-09T16:54:12;2.35;;;0.98;;
16800;SDS011;8518;53.236;10.384;2022-09-09T16:56:41;2.70;;;1.17;;
16800;SDS011;8518;53.236;10.384;2022-09-09T16:59:09;3.63;;;1.10;;
16800;SDS011;8518;53.236;10.384;2022-09-09T17:01:38;1.80;;;0.90;;
16800;SDS011;8518;53.236;10.384;2022-09-09T17:04:09;2.00;;;1.13;;
16800;SDS011;8518;53.236;10.384;2022-09-09T17:06:38;1.98;;;1.25;;
16800;SDS011;8518;53.236;10.384;2022-09-09T17:09:07;2.10;;;1.30;;
16800;SDS011;8518;53.236;10.384;2022-09-09T17:11:34;2.20;;;1.00;;
16800;SDS011;8518;53.236;10.384;2022-09-09T17:14:01;2.70;;;1.42;;
16800;SDS011;8518;53.236;10.384;2022-09-09T17:16:29;2.43;;;1.60;;
16800;SDS011;8518;53.236;10.384;2022-09-09T17:18:56;4.97;;;3.20;;
16800;SDS011;8518;53.236;10.384;2022-09-09T17:21:24;7.67;;;6.07;;